sensor_id;sensor_type;location;lat;lon;timestamp;P1;durP1;ratioP1;P2;durP2;ratioP2
66189;SDS011;52992;52.084;5.412;2023-03-01T00:01:41;10.37;;;6.33;;
66189;SDS011;52992;52.084;5.412;2023-03-01T00:04:11;11.83;;;6.20;;
66189;SDS011;52992;52.084;5.412;2023-03-01T00:06:46;8.83;;;4.80;;
66189;SDS011;52992;52.084;5.412;2023-03-01T00:09:20;7.80;;;5.17;;
66189;SDS011;52992;52.084;5.412;2023-03-01T00:11:47;9.57;;;5.53;;
66189;SDS011;52992;52.084;5.412;2023-03-01T00:14:19;6.20;;;5.00;;
66189;SDS011;52992;52.084;5.412;2023-03-01T00:16:46;10.03;;;5.37;;
66189;SDS011;52992;52.084;5.412;2023-03-01T00:19:18;11.33;;;5.17;;
66189;SDS011;52992;52.084;5.412;2023-03-01T00:21:46;7.87;;;5.47;;
66189;SDS011;52992;52.084;5.412;2023-03-01T00:24:15;8.50;;;5.33;;
66189;SDS011;52992;52.084;5.412;2023-03-01T00:26:47;9.07;;;5.90;;
66189;SDS011;52992;52.084;5.412;2023-03-01T00:29:17;8.03;;;5.67;;
66189;SDS011;52992;52.084;5.412;2023-03-01T00:31:44;8.20;;;5.30;;
66189;SDS011;52992;52.084;5.412;2023-03-01T00:34:11;9.30;;;5.93;;
66189;SDS011;52992;52.084;5.412;2023-03-01T00:36:39;10.90;;;5.63;;
66189;SDS011;52992;52.084;5.412;2023-03-01T00:39:09;11.83;;;6.10;;
66189;SDS011;52992;52.084;5.412;2023-03-01T00:41:38;8.50;;;5.83;;
66189;SDS011;52992;52.084;5.412;2023-03-01T00:44:10;8.50;;;5.80;;
66189;SDS011;52992;52.084;5.412;2023-03-01T00:46:37;7.57;;;5.53;;
66189;SDS011;52992;52.084;5.412;2023-03-01T00:49:04;9.70;;;6.13;;
66189;SDS011;52992;52.084;5.412;2023-03-01T00:51:33;8.33;;;6.10;;
66189;SDS011;52992;52.084;5.412;2023-03-01T00:54:01;11.07;;;6.23;;
66189;SDS011;52992;52.084;5.412;2023-03-01T00:56:30;11.00;;;5.97;;
66189;SDS011;52992;52.084;5.412;2023-03-01T00:58:59;11.07;;;6.23;;
66189;SDS011;52992;52.084;5.412;2023-03-01T01:02:01;11.37;;;5.87;;
66189;SDS011;52992;52.084;5.412;2023-03-01T01:04:29;8.67;;;5.90;;
66189;SDS011;52992;52.084;5.412;2023-03-01T01:06:59;8.90;;;6.00;;
66189;SDS011;52992;52.084;5.412;2023-03-01T01:09:31;9.57;;;5.60;;
66189;SDS011;52992;52.084;5.412;2023-03-01T01:11:58;9.67;;;5.47;;
66189;SDS011;52992;52.084;5.412;2023-03-01T01:14:33;8.43;;;5.50;;
66189;SDS011;52992;52.084;5.412;2023-03-01T01:17:00;10.60;;;5.70;;
66189;SDS011;52992;52.084;5.412;2023-03-01T01:19:30;10.90;;;5.97;;
66189;SDS011;52992;52.084;5.412;2023-03-01T01:21:57;8.80;;;6.03;;
66189;SDS011;52992;52.084;5.412;2023-03-01T01:24:25;13.30;;;8.67;;
66189;SDS011;52992;52.084;5.412;2023-03-01T01:26:55;14.90;;;8.77;;
66189;SDS011;52992;52.084;5.412;2023-03-01T01:29:22;11.50;;;7.70;;
66189;SDS011;52992;52.084;5.412;2023-03-01T01:31:49;9.83;;;5.90;;
66189;SDS011;52992;52.084;5.412;2023-03-01T01:34:17;10.47;;;6.77;;
66189;SDS011;52992;52.084;5.412;2023-03-01T01:36:49;8.57;;;6.27;;
66189;SDS011;52992;52.084;5.412;2023-03-01T01:39:22;8.53;;;6.30;;
66189;SDS011;52992;52.084;5.412;2023-03-01T01:41:50;9.27;;;6.37;;
66189;SDS011;52992;52.084;5.412;2023-03-01T01:44:18;13.33;;;8.17;;
66189;SDS011;52992;52.084;5.412;2023-03-01T01:49:32;9.17;;;6.30;;
66189;SDS011;52992;52.084;5.412;2023-03-01T01:54:56;8.50;;;6.57;;
66189;SDS011;52992;52.084;5.412;2023-03-01T01:57:36;10.80;;;6.13;;
66189;SDS011;52992;52.084;5.412;2023-03-01T02:00:07;11.67;;;5.97;;
66189;SDS011;52992;52.084;5.412;2023-03-01T02:02:40;9.27;;;6.03;;
66189;SDS011;52992;52.084;5.412;2023-03-01T02:05:11;9.03;;;6.53;;
66189;SDS011;52992;52.084;5.412;2023-03-01T02:07:44;9.63;;;6.17;;
66189;SDS011;52992;52.084;5.412;2023-03-01T02:10:12;11.90;;;6.43;;
66189;SDS011;52992;52.084;5.412;2023-03-01T02:12:39;10.27;;;6.40;;
66189;SDS011;52992;52.084;5.412;2023-03-01T02:15:06;10.77;;;6.37;;
66189;SDS011;52992;52.084;5.412;2023-03-01T02:17:34;10.20;;;6.27;;
66189;SDS011;52992;52.084;5.412;2023-03-01T02:22:58;10.00;;;6.50;;
66189;SDS011;52992;52.084;5.412;2023-03-01T02:25:31;11.73;;;6.50;;
66189;SDS011;52992;52.084;5.412;2023-03-01T02:30:40;12.53;;;7.07;;
66189;SDS011;52992;52.084;5.412;2023-03-01T02:33:29;14.80;;;8.20;;
66189;SDS011;52992;52.084;5.412;2023-03-01T02:36:00;14.37;;;7.17;;
66189;SDS011;52992;52.084;5.412;2023-03-01T02:38:28;12.17;;;6.63;;
66189;SDS011;52992;52.084;5.412;2023-03-01T02:40:55;10.13;;;6.80;;
66189;SDS011;52992;52.084;5.412;2023-03-01T02:43:26;10.53;;;7.10;;
66189;SDS011;52992;52.084;5.412;2023-03-01T02:46:02;14.77;;;7.33;;
66189;SDS011;52992;52.084;5.412;2023-03-01T02:48:45;13.83;;;8.07;;
66189;SDS011;52992;52.084;5.412;2023-03-01T02:56:47;13.63;;;8.13;;
66189;SDS011;52992;52.084;5.412;2023-03-01T02:59:19;10.57;;;6.73;;
66189;SDS011;52992;52.084;5.412;2023-03-01T03:01:49;14.90;;;7.70;;
66189;SDS011;52992;52.084;5.412;2023-03-01T03:04:17;12.90;;;6.87;;
66189;SDS011;52992;52.084;5.412;2023-03-01T03:06:47;16.57;;;7.80;;
66189;SDS011;52992;52.084;5.412;2023-03-01T03:09:16;11.73;;;7.30;;
66189;SDS011;52992;52.084;5.412;2023-03-01T03:11:44;11.83;;;6.87;;
66189;SDS011;52992;52.084;5.412;2023-03-01T03:14:13;10.80;;;6.90;;
66189;SDS011;52992;52.084;5.412;2023-03-01T03:16:45;11.47;;;6.80;;
66189;SDS011;52992;52.084;5.412;2023-03-01T03:19:14;10.00;;;6.37;;
66189;SDS011;52992;52.084;5.412;2023-03-01T03:21:43;14.47;;;7.10;;
66189;SDS011;52992;52.084;5.412;2023-03-01T03:24:13;10.60;;;7.20;;
66189;SDS011;52992;52.084;5.412;2023-03-01T03:26:40;12.63;;;7.20;;
66189;SDS011;52992;52.084;5.412;2023-03-01T03:29:06;11.03;;;6.47;;
66189;SDS011;52992;52.084;5.412;2023-03-01T03:31:33;14.63;;;6.40;;
66189;SDS011;52992;52.084;5.412;2023-03-01T03:34:00;13.13;;;7.17;;
66189;SDS011;52992;52.084;5.412;2023-03-01T03:36:27;10.60;;;6.43;;
66189;SDS011;52992;52.084;5.412;2023-03-01T03:38:55;11.37;;;7.27;;
66189;SDS011;52992;52.084;5.412;2023-03-01T03:41:21;11.37;;;6.90;;
66189;SDS011;52992;52.084;5.412;2023-03-01T03:43:48;10.07;;;6.30;;
66189;SDS011;52992;52.084;5.412;2023-03-01T03:46:15;11.43;;;6.90;;
66189;SDS011;52992;52.084;5.412;2023-03-01T03:48:43;12.90;;;6.50;;
66189;SDS011;52992;52.084;5.412;2023-03-01T03:51:12;11.43;;;7.03;;
66189;SDS011;52992;52.084;5.412;2023-03-01T03:53:41;8.93;;;6.03;;
66189;SDS011;52992;52.084;5.412;2023-03-01T03:56:09;11.83;;;6.83;;
66189;SDS011;52992;52.084;5.412;2023-03-01T03:58:36;11.13;;;6.67;;
66189;SDS011;52992;52.084;5.412;2023-03-01T04:01:03;9.97;;;6.47;;
66189;SDS011;52992;52.084;5.412;2023-03-01T04:03:31;9.40;;;6.47;;
66189;SDS011;52992;52.084;5.412;2023-03-01T04:05:59;10.57;;;7.27;;
66189;SDS011;52992;52.084;5.412;2023-03-01T04:08:27;12.10;;;6.97;;
66189;SDS011;52992;52.084;5.412;2023-03-01T04:10:59;10.33;;;6.67;;
66189;SDS011;52992;52.084;5.412;2023-03-01T04:13:47;11.60;;;7.40;;
66189;SDS011;52992;52.084;5.412;2023-03-01T04:16:14;11.87;;;6.40;;
66189;SDS011;52992;52.084;5.412;2023-03-01T04:18:41;13.07;;;6.83;;
66189;SDS011;52992;52.084;5.412;2023-03-01T04:21:08;9.60;;;6.77;;
66189;SDS011;52992;52.084;5.412;2023-03-01T04:23:35;10.77;;;6.60;;
66189;SDS011;52992;52.084;5.412;2023-03-01T04:26:02;12.30;;;6.70;;
66189;SDS011;52992;52.084;5.412;2023-03-01T04:31:04;11.70;;;5.97;;
66189;SDS011;52992;52.084;5.412;2023-03-01T04:33:47;11.93;;;6.67;;
66189;SDS011;52992;52.084;5.412;2023-03-01T04:36:18;11.70;;;6.43;;
66189;SDS011;52992;52.084;5.412;2023-03-01T04:38:47;11.70;;;7.20;;
66189;SDS011;52992;52.084;5.412;2023-03-01T04:41:18;13.30;;;7.00;;
66189;SDS011;52992;52.084;5.412;2023-03-01T04:43:46;11.17;;;6.23;;
66189;SDS011;52992;52.084;5.412;2023-03-01T04:46:16;12.00;;;7.17;;
66189;SDS011;52992;52.084;5.412;2023-03-01T04:48:45;11.20;;;7.43;;
66189;SDS011;52992;52.084;5.412;2023-03-01T04:51:13;9.30;;;6.50;;
66189;SDS011;52992;52.084;5.412;2023-03-01T04:53:41;11.87;;;6.80;;
66189;SDS011;52992;52.084;5.412;2023-03-01T04:56:08;13.50;;;7.57;;
66189;SDS011;52992;52.084;5.412;2023-03-01T04:58:35;10.90;;;7.07;;
66189;SDS011;52992;52.084;5.412;2023-03-01T05:01:07;12.73;;;7.07;;
66189;SDS011;52992;52.084;5.412;2023-03-01T05:03:42;10.27;;;6.73;;
66189;SDS011;52992;52.084;5.412;2023-03-01T05:06:16;12.30;;;7.03;;
66189;SDS011;52992;52.084;5.412;2023-03-01T05:08:44;10.90;;;6.77;;
66189;SDS011;52992;52.084;5.412;2023-03-01T05:11:11;14.70;;;7.00;;
66189;SDS011;52992;52.084;5.412;2023-03-01T05:13:38;11.77;;;6.73;;
66189;SDS011;52992;52.084;5.412;2023-03-01T05:16:06;16.93;;;7.77;;
66189;SDS011;52992;52.084;5.412;2023-03-01T05:18:38;12.30;;;8.20;;
66189;SDS011;52992;52.084;5.412;2023-03-01T05:21:06;12.10;;;7.63;;
66189;SDS011;52992;52.084;5.412;2023-03-01T05:23:37;14.77;;;8.70;;
66189;SDS011;52992;52.084;5.412;2023-03-01T05:26:05;11.80;;;7.10;;
66189;SDS011;52992;52.084;5.412;2023-03-01T05:28:36;20.20;;;9.57;;
66189;SDS011;52992;52.084;5.412;2023-03-01T05:31:04;15.77;;;8.87;;
66189;SDS011;52992;52.084;5.412;2023-03-01T05:33:39;14.67;;;8.30;;
66189;SDS011;52992;52.084;5.412;2023-03-01T05:36:07;12.30;;;7.50;;
66189;SDS011;52992;52.084;5.412;2023-03-01T05:38:35;18.67;;;8.67;;
66189;SDS011;52992;52.084;5.412;2023-03-01T05:41:02;15.97;;;9.47;;
66189;SDS011;52992;52.084;5.412;2023-03-01T05:43:30;14.13;;;8.53;;
66189;SDS011;52992;52.084;5.412;2023-03-01T05:46:00;15.20;;;9.53;;
66189;SDS011;52992;52.084;5.412;2023-03-01T05:48:28;14.57;;;9.00;;
66189;SDS011;52992;52.084;5.412;2023-03-01T05:50:57;18.10;;;8.07;;
66189;SDS011;52992;52.084;5.412;2023-03-01T05:53:26;18.53;;;9.43;;
66189;SDS011;52992;52.084;5.412;2023-03-01T05:55:53;19.63;;;9.40;;
66189;SDS011;52992;52.084;5.412;2023-03-01T05:58:20;15.67;;;7.83;;
66189;SDS011;52992;52.084;5.412;2023-03-01T06:00:48;15.50;;;8.63;;
66189;SDS011;52992;52.084;5.412;2023-03-01T06:03:15;18.37;;;8.17;;
66189;SDS011;52992;52.084;5.412;2023-03-01T06:05:43;16.37;;;8.47;;
66189;SDS011;52992;52.084;5.412;2023-03-01T06:08:11;15.77;;;8.63;;
66189;SDS011;52992;52.084;5.412;2023-03-01T06:10:38;13.77;;;8.20;;
66189;SDS011;52992;52.084;5.412;2023-03-01T06:13:05;15.00;;;8.60;;
66189;SDS011;52992;52.084;5.412;2023-03-01T06:15:32;15.30;;;8.20;;
66189;SDS011;52992;52.084;5.412;2023-03-01T06:17:59;14.33;;;8.53;;
66189;SDS011;52992;52.084;5.412;2023-03-01T06:20:27;15.90;;;8.73;;
66189;SDS011;52992;52.084;5.412;2023-03-01T06:22:54;13.30;;;8.33;;
66189;SDS011;52992;52.084;5.412;2023-03-01T06:25:23;12.23;;;7.83;;
66189;SDS011;52992;52.084;5.412;2023-03-01T06:27:51;15.07;;;8.43;;
66189;SDS011;52992;52.084;5.412;2023-03-01T06:30:19;16.13;;;8.67;;
66189;SDS011;52992;52.084;5.412;2023-03-01T06:32:48;13.43;;;7.93;;
66189;SDS011;52992;52.084;5.412;2023-03-01T06:35:16;15.60;;;8.27;;
66189;SDS011;52992;52.084;5.412;2023-03-01T06:37:44;16.70;;;9.07;;
66189;SDS011;52992;52.084;5.412;2023-03-01T06:40:12;15.87;;;9.40;;
66189;SDS011;52992;52.084;5.412;2023-03-01T06:42:41;15.90;;;9.03;;
66189;SDS011;52992;52.084;5.412;2023-03-01T06:45:13;13.93;;;9.57;;
66189;SDS011;52992;52.084;5.412;2023-03-01T06:47:39;14.83;;;8.87;;
66189;SDS011;52992;52.084;5.412;2023-03-01T06:50:06;19.13;;;9.77;;
66189;SDS011;52992;52.084;5.412;2023-03-01T06:52:34;18.33;;;9.93;;
66189;SDS011;52992;52.084;5.412;2023-03-01T06:55:01;14.97;;;9.30;;
66189;SDS011;52992;52.084;5.412;2023-03-01T06:57:28;18.00;;;9.97;;
66189;SDS011;52992;52.084;5.412;2023-03-01T06:59:55;15.27;;;9.07;;
66189;SDS011;52992;52.084;5.412;2023-03-01T07:02:22;16.77;;;9.90;;
66189;SDS011;52992;52.084;5.412;2023-03-01T07:04:49;16.27;;;9.47;;
66189;SDS011;52992;52.084;5.412;2023-03-01T07:07:17;12.80;;;8.90;;
66189;SDS011;52992;52.084;5.412;2023-03-01T07:09:45;15.37;;;9.43;;
66189;SDS011;52992;52.084;5.412;2023-03-01T07:12:12;21.07;;;10.13;;
66189;SDS011;52992;52.084;5.412;2023-03-01T07:14:39;15.30;;;9.23;;
66189;SDS011;52992;52.084;5.412;2023-03-01T07:17:06;16.40;;;9.53;;
66189;SDS011;52992;52.084;5.412;2023-03-01T07:19:33;13.37;;;8.83;;
66189;SDS011;52992;52.084;5.412;2023-03-01T07:22:00;16.03;;;10.00;;
66189;SDS011;52992;52.084;5.412;2023-03-01T07:24:27;17.83;;;10.00;;
66189;SDS011;52992;52.084;5.412;2023-03-01T07:26:54;17.60;;;9.70;;
66189;SDS011;52992;52.084;5.412;2023-03-01T07:29:21;14.60;;;9.17;;
66189;SDS011;52992;52.084;5.412;2023-03-01T07:32:09;14.73;;;9.30;;
66189;SDS011;52992;52.084;5.412;2023-03-01T07:35:06;14.43;;;9.47;;
66189;SDS011;52992;52.084;5.412;2023-03-01T07:37:34;14.30;;;8.77;;
66189;SDS011;52992;52.084;5.412;2023-03-01T07:40:01;16.40;;;9.50;;
66189;SDS011;52992;52.084;5.412;2023-03-01T07:42:28;15.83;;;9.40;;
66189;SDS011;52992;52.084;5.412;2023-03-01T07:44:54;13.50;;;8.83;;
66189;SDS011;52992;52.084;5.412;2023-03-01T07:47:21;14.87;;;9.47;;
66189;SDS011;52992;52.084;5.412;2023-03-01T07:49:48;13.03;;;8.77;;
66189;SDS011;52992;52.084;5.412;2023-03-01T07:52:15;13.17;;;8.27;;
66189;SDS011;52992;52.084;5.412;2023-03-01T07:54:42;12.00;;;8.23;;
66189;SDS011;52992;52.084;5.412;2023-03-01T07:57:10;13.27;;;8.40;;
66189;SDS011;52992;52.084;5.412;2023-03-01T07:59:37;13.47;;;9.20;;
66189;SDS011;52992;52.084;5.412;2023-03-01T08:02:04;21.00;;;9.40;;
66189;SDS011;52992;52.084;5.412;2023-03-01T08:04:32;12.40;;;8.23;;
66189;SDS011;52992;52.084;5.412;2023-03-01T08:06:59;17.70;;;9.17;;
66189;SDS011;52992;52.084;5.412;2023-03-01T08:09:26;16.53;;;8.37;;
66189;SDS011;52992;52.084;5.412;2023-03-01T08:11:53;14.80;;;9.50;;
66189;SDS011;52992;52.084;5.412;2023-03-01T08:14:20;19.07;;;9.50;;
66189;SDS011;52992;52.084;5.412;2023-03-01T08:16:48;12.70;;;8.77;;
66189;SDS011;52992;52.084;5.412;2023-03-01T08:19:16;17.03;;;8.63;;
66189;SDS011;52992;52.084;5.412;2023-03-01T08:21:43;16.30;;;9.77;;
66189;SDS011;52992;52.084;5.412;2023-03-01T08:24:10;15.83;;;8.43;;
66189;SDS011;52992;52.084;5.412;2023-03-01T08:26:37;16.47;;;9.40;;
66189;SDS011;52992;52.084;5.412;2023-03-01T08:29:04;14.93;;;8.40;;
66189;SDS011;52992;52.084;5.412;2023-03-01T08:31:31;13.60;;;8.93;;
66189;SDS011;52992;52.084;5.412;2023-03-01T08:34:02;14.93;;;7.93;;
66189;SDS011;52992;52.084;5.412;2023-03-01T08:36:33;12.97;;;7.83;;
66189;SDS011;52992;52.084;5.412;2023-03-01T08:39:03;14.83;;;8.97;;
66189;SDS011;52992;52.084;5.412;2023-03-01T08:41:30;14.13;;;7.90;;
66189;SDS011;52992;52.084;5.412;2023-03-01T08:43:57;14.60;;;8.13;;
66189;SDS011;52992;52.084;5.412;2023-03-01T08:46:28;17.40;;;8.23;;
66189;SDS011;52992;52.084;5.412;2023-03-01T08:48:59;15.17;;;8.27;;
66189;SDS011;52992;52.084;5.412;2023-03-01T08:51:25;12.17;;;7.73;;
66189;SDS011;52992;52.084;5.412;2023-03-01T08:53:52;14.57;;;8.27;;
66189;SDS011;52992;52.084;5.412;2023-03-01T08:56:19;13.93;;;7.87;;
66189;SDS011;52992;52.084;5.412;2023-03-01T08:58:46;14.63;;;8.60;;
66189;SDS011;52992;52.084;5.412;2023-03-01T09:01:15;13.67;;;8.40;;
66189;SDS011;52992;52.084;5.412;2023-03-01T09:03:44;12.63;;;7.63;;
66189;SDS011;52992;52.084;5.412;2023-03-01T09:06:11;12.17;;;7.40;;
66189;SDS011;52992;52.084;5.412;2023-03-01T09:08:43;13.33;;;7.63;;
66189;SDS011;52992;52.084;5.412;2023-03-01T09:11:13;16.13;;;8.43;;
66189;SDS011;52992;52.084;5.412;2023-03-01T09:13:43;12.90;;;7.50;;
66189;SDS011;52992;52.084;5.412;2023-03-01T09:16:11;13.43;;;7.33;;
66189;SDS011;52992;52.084;5.412;2023-03-01T09:18:40;14.13;;;7.87;;
66189;SDS011;52992;52.084;5.412;2023-03-01T09:21:08;18.10;;;8.20;;
66189;SDS011;52992;52.084;5.412;2023-03-01T09:23:40;11.60;;;7.30;;
66189;SDS011;52992;52.084;5.412;2023-03-01T09:26:09;12.53;;;7.40;;
66189;SDS011;52992;52.084;5.412;2023-03-01T09:28:38;9.43;;;6.53;;
66189;SDS011;52992;52.084;5.412;2023-03-01T09:31:07;11.00;;;7.07;;
66189;SDS011;52992;52.084;5.412;2023-03-01T09:33:34;12.43;;;6.60;;
66189;SDS011;52992;52.084;5.412;2023-03-01T09:36:02;9.43;;;5.73;;
66189;SDS011;52992;52.084;5.412;2023-03-01T09:38:31;11.97;;;6.33;;
66189;SDS011;52992;52.084;5.412;2023-03-01T09:40:58;9.73;;;6.50;;
66189;SDS011;52992;52.084;5.412;2023-03-01T09:46:22;9.47;;;5.50;;
66189;SDS011;52992;52.084;5.412;2023-03-01T09:51:32;10.33;;;4.87;;
66189;SDS011;52992;52.084;5.412;2023-03-01T09:54:01;10.17;;;5.80;;
66189;SDS011;52992;52.084;5.412;2023-03-01T10:01:55;11.13;;;5.60;;
66189;SDS011;52992;52.084;5.412;2023-03-01T10:07:27;9.30;;;4.93;;
66189;SDS011;52992;52.084;5.412;2023-03-01T10:10:07;8.13;;;4.80;;
66189;SDS011;52992;52.084;5.412;2023-03-01T10:12:49;7.90;;;4.83;;
66189;SDS011;52992;52.084;5.412;2023-03-01T10:15:18;6.13;;;3.63;;
66189;SDS011;52992;52.084;5.412;2023-03-01T10:17:52;7.43;;;4.70;;
66189;SDS011;52992;52.084;5.412;2023-03-01T10:23:14;7.83;;;4.67;;
66189;SDS011;52992;52.084;5.412;2023-03-01T10:25:44;6.83;;;4.40;;
66189;SDS011;52992;52.084;5.412;2023-03-01T10:31:24;6.90;;;4.40;;
66189;SDS011;52992;52.084;5.412;2023-03-01T10:33:56;8.80;;;4.40;;
66189;SDS011;52992;52.084;5.412;2023-03-01T10:36:24;7.57;;;4.23;;
66189;SDS011;52992;52.084;5.412;2023-03-01T10:38:55;6.10;;;3.87;;
66189;SDS011;52992;52.084;5.412;2023-03-01T10:41:25;7.03;;;3.90;;
66189;SDS011;52992;52.084;5.412;2023-03-01T10:43:56;4.30;;;3.47;;
66189;SDS011;52992;52.084;5.412;2023-03-01T10:46:30;9.13;;;3.87;;
66189;SDS011;52992;52.084;5.412;2023-03-01T10:51:52;4.00;;;3.00;;
66189;SDS011;52992;52.084;5.412;2023-03-01T10:54:29;5.13;;;3.13;;
66189;SDS011;52992;52.084;5.412;2023-03-01T10:56:59;4.87;;;3.60;;
66189;SDS011;52992;52.084;5.412;2023-03-01T11:04:58;4.63;;;3.30;;
66189;SDS011;52992;52.084;5.412;2023-03-01T11:07:52;4.70;;;3.20;;
66189;SDS011;52992;52.084;5.412;2023-03-01T11:10:26;4.73;;;3.10;;
66189;SDS011;52992;52.084;5.412;2023-03-01T11:13:05;3.33;;;2.23;;
66189;SDS011;52992;52.084;5.412;2023-03-01T11:16:00;6.57;;;2.87;;
66189;SDS011;52992;52.084;5.412;2023-03-01T11:18:29;6.13;;;3.13;;
66189;SDS011;52992;52.084;5.412;2023-03-01T11:21:13;3.63;;;2.80;;
66189;SDS011;52992;52.084;5.412;2023-03-01T11:23:42;3.73;;;3.00;;
66189;SDS011;52992;52.084;5.412;2023-03-01T11:26:12;5.57;;;2.93;;
66189;SDS011;52992;52.084;5.412;2023-03-01T11:28:41;5.30;;;2.87;;
66189;SDS011;52992;52.084;5.412;2023-03-01T11:31:10;3.87;;;2.90;;
66189;SDS011;52992;52.084;5.412;2023-03-01T11:33:43;5.27;;;3.00;;
66189;SDS011;52992;52.084;5.412;2023-03-01T11:36:28;5.53;;;3.30;;
66189;SDS011;52992;52.084;5.412;2023-03-01T11:39:17;5.63;;;3.03;;
66189;SDS011;52992;52.084;5.412;2023-03-01T11:42:13;7.23;;;3.03;;
66189;SDS011;52992;52.084;5.412;2023-03-01T11:44:50;5.57;;;3.50;;
66189;SDS011;52992;52.084;5.412;2023-03-01T11:50:17;4.93;;;3.40;;
66189;SDS011;52992;52.084;5.412;2023-03-01T12:00:53;5.03;;;3.40;;
66189;SDS011;52992;52.084;5.412;2023-03-01T12:08:34;5.03;;;3.53;;
66189;SDS011;52992;52.084;5.412;2023-03-01T12:22:44;5.80;;;3.60;;
66189;SDS011;52992;52.084;5.412;2023-03-01T12:25:36;7.30;;;3.90;;
66189;SDS011;52992;52.084;5.412;2023-03-01T12:28:17;5.03;;;3.23;;
66189;SDS011;52992;52.084;5.412;2023-03-01T12:34:20;6.53;;;3.87;;
66189;SDS011;52992;52.084;5.412;2023-03-01T12:37:07;7.73;;;3.53;;
66189;SDS011;52992;52.084;5.412;2023-03-01T12:50:53;8.47;;;3.47;;
66189;SDS011;52992;52.084;5.412;2023-03-01T12:53:24;6.37;;;3.27;;
66189;SDS011;52992;52.084;5.412;2023-03-01T12:56:00;3.90;;;2.83;;
66189;SDS011;52992;52.084;5.412;2023-03-01T12:58:33;5.33;;;3.80;;
66189;SDS011;52992;52.084;5.412;2023-03-01T13:01:31;3.23;;;2.90;;
66189;SDS011;52992;52.084;5.412;2023-03-01T13:07:15;5.30;;;3.27;;
66189;SDS011;52992;52.084;5.412;2023-03-01T13:15:28;4.47;;;3.27;;
66189;SDS011;52992;52.084;5.412;2023-03-01T13:18:01;6.07;;;3.93;;
66189;SDS011;52992;52.084;5.412;2023-03-01T13:20:50;6.60;;;3.70;;
66189;SDS011;52992;52.084;5.412;2023-03-01T13:28:56;5.27;;;3.27;;
66189;SDS011;52992;52.084;5.412;2023-03-01T13:33:57;4.37;;;3.40;;
66189;SDS011;52992;52.084;5.412;2023-03-01T13:38:56;4.67;;;3.40;;
66189;SDS011;52992;52.084;5.412;2023-03-01T13:44:17;7.07;;;3.23;;
66189;SDS011;52992;52.084;5.412;2023-03-01T13:46:51;5.23;;;3.33;;
66189;SDS011;52992;52.084;5.412;2023-03-01T13:49:21;4.43;;;3.50;;
66189;SDS011;52992;52.084;5.412;2023-03-01T13:51:50;5.87;;;3.70;;
66189;SDS011;52992;52.084;5.412;2023-03-01T13:54:23;5.97;;;3.20;;
66189;SDS011;52992;52.084;5.412;2023-03-01T13:57:00;5.97;;;3.67;;
66189;SDS011;52992;52.084;5.412;2023-03-01T13:59:28;4.60;;;3.23;;
66189;SDS011;52992;52.084;5.412;2023-03-01T14:01:57;6.27;;;3.47;;
66189;SDS011;52992;52.084;5.412;2023-03-01T14:04:26;4.73;;;3.83;;
66189;SDS011;52992;52.084;5.412;2023-03-01T14:07:08;4.70;;;3.37;;
66189;SDS011;52992;52.084;5.412;2023-03-01T14:09:40;6.60;;;3.60;;
66189;SDS011;52992;52.084;5.412;2023-03-01T14:18:23;5.13;;;3.37;;
66189;SDS011;52992;52.084;5.412;2023-03-01T14:20:59;4.73;;;3.40;;
66189;SDS011;52992;52.084;5.412;2023-03-01T14:23:33;4.70;;;3.37;;
66189;SDS011;52992;52.084;5.412;2023-03-01T14:26:01;4.53;;;3.13;;
66189;SDS011;52992;52.084;5.412;2023-03-01T14:28:33;3.37;;;2.97;;
66189;SDS011;52992;52.084;5.412;2023-03-01T14:31:04;4.47;;;3.40;;
66189;SDS011;52992;52.084;5.412;2023-03-01T14:34:21;7.20;;;3.23;;
66189;SDS011;52992;52.084;5.412;2023-03-01T14:36:50;8.23;;;3.43;;
66189;SDS011;52992;52.084;5.412;2023-03-01T14:39:18;5.10;;;3.57;;
66189;SDS011;52992;52.084;5.412;2023-03-01T14:41:49;5.03;;;3.13;;
66189;SDS011;52992;52.084;5.412;2023-03-01T14:44:21;7.30;;;4.67;;
66189;SDS011;52992;52.084;5.412;2023-03-01T14:46:54;6.40;;;3.67;;
66189;SDS011;52992;52.084;5.412;2023-03-01T14:49:23;5.90;;;3.30;;
66189;SDS011;52992;52.084;5.412;2023-03-01T14:51:53;6.33;;;2.87;;
66189;SDS011;52992;52.084;5.412;2023-03-01T14:54:28;7.10;;;3.50;;
66189;SDS011;52992;52.084;5.412;2023-03-01T14:57:12;5.20;;;3.50;;
66189;SDS011;52992;52.084;5.412;2023-03-01T14:59:45;7.77;;;4.03;;
66189;SDS011;52992;52.084;5.412;2023-03-01T15:02:17;8.77;;;5.00;;
66189;SDS011;52992;52.084;5.412;2023-03-01T15:04:47;6.53;;;3.60;;
66189;SDS011;52992;52.084;5.412;2023-03-01T15:07:20;6.00;;;3.67;;
66189;SDS011;52992;52.084;5.412;2023-03-01T15:09:47;5.10;;;3.37;;
66189;SDS011;52992;52.084;5.412;2023-03-01T15:14:57;5.57;;;3.60;;
66189;SDS011;52992;52.084;5.412;2023-03-01T15:20:03;6.43;;;3.83;;
66189;SDS011;52992;52.084;5.412;2023-03-01T15:22:32;4.90;;;3.30;;
66189;SDS011;52992;52.084;5.412;2023-03-01T15:25:01;3.77;;;3.17;;
66189;SDS011;52992;52.084;5.412;2023-03-01T15:27:28;4.60;;;3.63;;
66189;SDS011;52992;52.084;5.412;2023-03-01T15:29:56;5.37;;;3.90;;
66189;SDS011;52992;52.084;5.412;2023-03-01T15:38:27;7.50;;;3.40;;
66189;SDS011;52992;52.084;5.412;2023-03-01T15:40:59;4.87;;;3.60;;
66189;SDS011;52992;52.084;5.412;2023-03-01T15:43:44;6.33;;;3.23;;
66189;SDS011;52992;52.084;5.412;2023-03-01T15:46:31;5.77;;;3.17;;
66189;SDS011;52992;52.084;5.412;2023-03-01T15:49:02;8.67;;;4.70;;
66189;SDS011;52992;52.084;5.412;2023-03-01T15:54:01;4.43;;;3.30;;
66189;SDS011;52992;52.084;5.412;2023-03-01T15:56:48;6.23;;;3.77;;
66189;SDS011;52992;52.084;5.412;2023-03-01T15:59:15;6.60;;;3.30;;
66189;SDS011;52992;52.084;5.412;2023-03-01T16:01:43;4.70;;;3.20;;
66189;SDS011;52992;52.084;5.412;2023-03-01T16:04:11;4.63;;;3.20;;
66189;SDS011;52992;52.084;5.412;2023-03-01T16:06:42;5.23;;;3.63;;
66189;SDS011;52992;52.084;5.412;2023-03-01T16:09:09;9.33;;;4.03;;
66189;SDS011;52992;52.084;5.412;2023-03-01T16:11:38;5.13;;;3.60;;
66189;SDS011;52992;52.084;5.412;2023-03-01T16:14:07;6.57;;;3.57;;
66189;SDS011;52992;52.084;5.412;2023-03-01T16:16:35;5.70;;;3.87;;
66189;SDS011;52992;52.084;5.412;2023-03-01T16:19:02;10.63;;;4.50;;
66189;SDS011;52992;52.084;5.412;2023-03-01T16:21:29;6.70;;;3.90;;
66189;SDS011;52992;52.084;5.412;2023-03-01T16:23:56;5.37;;;3.83;;
66189;SDS011;52992;52.084;5.412;2023-03-01T16:26:23;7.47;;;3.83;;
66189;SDS011;52992;52.084;5.412;2023-03-01T16:28:50;4.63;;;3.33;;
66189;SDS011;52992;52.084;5.412;2023-03-01T16:31:21;5.07;;;3.53;;
66189;SDS011;52992;52.084;5.412;2023-03-01T16:33:49;5.97;;;3.60;;
66189;SDS011;52992;52.084;5.412;2023-03-01T16:36:18;5.00;;;2.90;;
66189;SDS011;52992;52.084;5.412;2023-03-01T16:38:47;7.87;;;3.70;;
66189;SDS011;52992;52.084;5.412;2023-03-01T16:41:17;5.57;;;3.80;;
66189;SDS011;52992;52.084;5.412;2023-03-01T16:43:45;6.20;;;3.53;;
66189;SDS011;52992;52.084;5.412;2023-03-01T16:46:14;5.70;;;4.20;;
66189;SDS011;52992;52.084;5.412;2023-03-01T16:48:54;5.77;;;3.57;;
66189;SDS011;52992;52.084;5.412;2023-03-01T16:51:22;6.70;;;3.50;;
66189;SDS011;52992;52.084;5.412;2023-03-01T16:53:50;7.47;;;3.93;;
66189;SDS011;52992;52.084;5.412;2023-03-01T16:56:18;6.93;;;3.80;;
66189;SDS011;52992;52.084;5.412;2023-03-01T16:58:45;5.47;;;3.80;;
66189;SDS011;52992;52.084;5.412;2023-03-01T17:03:44;7.73;;;4.40;;
66189;SDS011;52992;52.084;5.412;2023-03-01T17:06:13;5.67;;;4.00;;
66189;SDS011;52992;52.084;5.412;2023-03-01T17:08:43;6.40;;;4.00;;
66189;SDS011;52992;52.084;5.412;2023-03-01T17:11:11;6.83;;;4.20;;
66189;SDS011;52992;52.084;5.412;2023-03-01T17:13:40;8.83;;;4.70;;
66189;SDS011;52992;52.084;5.412;2023-03-01T17:16:09;6.10;;;4.37;;